Time;durP1;ratioP1;P1;durP2;ratioP2;P2;SDS_P1;SDS_P2;PMS_P1;PMS_P2;Temp;Humidity;BMP_temperature;BMP_pressure;BME280_temperature;BME280_humidity;BME280_pressure;Samples;Min_cycle;Max_cycle;Signal;HPM_P1;HPM_P2
2021/09/07 00:01:23;;;;;;;;;;;;;;;;;;4997439;28;20009;-68
2021/09/07 00:03:50;;;;;;;;;;;;;;;;;;4995735;28;20041;-70
2021/09/07 00:06:17;;;;;;;;;;;;;;;;;;4996860;28;20011;-68
2021/09/07 00:08:44;;;;;;;;;;;;;;;;;;4996426;28;20002;-68
2021/09/07 00:11:11;;;;;;;;;;;;;;;;;;4995864;28;20003;-68
2021/09/07 00:13:38;;;;;;;;;;;;;;;;;;4993927;28;20022;-68
2021/09/07 00:16:05;;;;;;;;;;;;;;;;;;4996827;28;20013;-71
2021/09/07 00:18:32;;;;;;;;;;;;;;;;;;4997470;28;20018;-68
2021/09/07 00:20:59;;;;;;;;;;;;;;;;;;4996290;28;20106;-68
2021/09/07 00:23:26;;;;;;;;;;;;;;;;;;4994543;28;20019;-69
2021/09/07 00:25:53;;;;;;;;;;;;;;;;;;4996263;28;20009;-68
2021/09/07 00:28:19;;;;;;;;;;;;;;;;;;4995669;28;20030;-68
2021/09/07 00:30:46;;;;;;;;;;;;;;;;;;4995570;28;20026;-68
2021/09/07 00:33:13;;;;;;;;;;;;;;;;;;4994339;28;20018;-68
2021/09/07 00:35:40;;;;;;;;;;;;;;;;;;4995069;28;20006;-68
2021/09/07 00:38:09;;;;;;;;;;;;;;;;;;4993688;28;20022;-68
2021/09/07 00:40:36;;;;;;;;;;;;;;;;;;4993070;28;20003;-68
2021/09/07 00:43:03;;;;;;;;;;;;;;;;;;4992552;28;20430;-68
2021/09/07 00:45:30;;;;;;;;;;;;;;;;;;4992679;28;20010;-68
2021/09/07 00:47:57;;;;;;;;;;;;;;;;;;4992638;28;20015;-68
2021/09/07 00:50:24;;;;;;;;;;;;;;;;;;4992362;28;20002;-67
2021/09/07 00:52:51;;;;;;;;;;;;;;;;;;4993849;28;20398;-68
2021/09/07 00:55:18;;;;;;;;;;;;;;;;;;4995766;28;20022;-68
2021/09/07 00:57:45;;;;;;;;;;;;;;;;;;4995691;28;20015;-68
2021/09/07 01:00:12;;;;;;;;;;;;;;;;;;4995397;28;20006;-68
2021/09/07 01:02:38;;;;;;;;;;;;;;;;;;4996414;28;20025;-68
2021/09/07 01:05:05;;;;;;;;;;;;;;;;;;4995999;28;20006;-68
2021/09/07 01:07:32;;;;;;;;;;;;;;;;;;4995581;28;20003;-68
2021/09/07 01:09:59;;;;;;;;;;;;;;;;;;4995343;28;20537;-68
2021/09/07 01:12:26;;;;;;;;;;;;;;;;;;4994981;28;20018;-68
2021/09/07 01:14:53;;;;;;;;;;;;;;;;;;4995649;28;20003;-68
2021/09/07 01:17:20;;;;;;;;;;;;;;;;;;4995636;28;20215;-68
2021/09/07 01:19:47;;;;;;;;;;;;;;;;;;4995872;28;20002;-68
2021/09/07 01:22:14;;;;;;;;;;;;;;;;;;4995182;28;20023;-68
2021/09/07 01:24:41;;;;;;;;;;;;;;;;;;4995355;28;20002;-68
2021/09/07 01:27:08;;;;;;;;;;;;;;;;;;4995218;28;20025;-68
2021/09/07 01:29:35;;;;;;;;;;;;;;;;;;4995517;28;20006;-68
2021/09/07 01:32:02;;;;;;;;;;;;;;;;;;4995194;28;20026;-68
2021/09/07 01:34:29;;;;;;;;;;;;;;;;;;4995178;28;20463;-68
2021/09/07 01:36:56;;;;;;;;;;;;;;;;;;4995389;28;20002;-68
2021/09/07 01:39:22;;;;;;;;;;;;;;;;;;4995325;28;20018;-68
2021/09/07 01:41:50;;;;;;;;;;;;;;;;;;4995052;28;20019;-68
2021/09/07 01:44:17;;;;;;;;;;;;;;;;;;4995350;28;20470;-67
2021/09/07 01:46:44;;;;;;;;;;;;;;;;;;4995387;28;20009;-68
2021/09/07 01:49:11;;;;;;;;;;;;;;;;;;4995143;28;20006;-68
2021/09/07 01:51:38;;;;;;;;;;;;;;;;;;4994290;28;20122;-68
2021/09/07 01:54:04;;;;;;;;;;;;;;;;;;4994598;28;20462;-68
2021/09/07 01:56:31;;;;;;;;;;;;;;;;;;4994848;28;20002;-68
2021/09/07 01:58:58;;;;;;;;;;;;;;;;;;4994858;28;20015;-68
2021/09/07 02:01:25;;;;;;;;;;;;;;;;;;4994592;28;20010;-68
2021/09/07 02:03:52;;;;;;;;;;;;;;;;;;4993576;28;20002;-68
2021/09/07 02:06:19;;;;;;;;;;;;;;;;;;4994515;28;20473;-68
2021/09/07 02:08:46;;;;;;;;;;;;;;;;;;4994997;28;20003;-69
2021/09/07 02:11:13;;;;;;;;;;;;;;;;;;4994697;28;20003;-69
2021/09/07 02:13:40;;;;;;;;;;;;;;;;;;4994641;28;20003;-68
2021/09/07 02:16:07;;;;;;;;;;;;;;;;;;4994535;28;20013;-68
2021/09/07 02:18:33;;;;;;;;;;;;;;;;;;4994390;28;20486;-68
2021/09/07 02:21:00;;;;;;;;;;;;;;;;;;4994036;28;20002;-68
2021/09/07 02:23:27;;;;;;;;;;;;;;;;;;4994341;28;20315;-68
2021/09/07 02:25:54;;;;;;;;;;;;;;;;;;4994153;28;20003;-69
2021/09/07 02:28:21;;;;;;;;;;;;;;;;;;4994332;28;20010;-69
2021/09/07 02:30:48;;;;;;;;;;;;;;;;;;4993722;28;20003;-68
2021/09/07 02:33:15;;;;;;;;;;;;;;;;;;4993996;28;20026;-68
2021/09/07 02:35:42;;;;;;;;;;;;;;;;;;4994188;28;20002;-68
2021/09/07 02:38:09;;;;;;;;;;;;;;;;;;4993817;28;20523;-68
2021/09/07 02:40:36;;;;;;;;;;;;;;;;;;4993972;28;20316;-68
2021/09/07 02:43:03;;;;;;;;;;;;;;;;;;4993822;28;20142;-68
2021/09/07 02:45:29;;;;;;;;;;;;;;;;;;4993806;28;20003;-68
2021/09/07 02:47:56;;;;;;;;;;;;;;;;;;4993823;28;20002;-68
2021/09/07 02:50:24;;;;;;;;;;;;;;;;;;4993359;28;20347;-68
2021/09/07 02:52:51;;;;;;;;;;;;;;;;;;4993385;28;20453;-68
2021/09/07 02:55:18;;;;;;;;;;;;;;;;;;4993733;28;20010;-68
2021/09/07 02:57:44;;;;;;;;;;;;;;;;;;4993552;28;20002;-68
2021/09/07 03:00:11;;;;;;;;;;;;;;;;;;4993508;28;20018;-68
2021/09/07 03:02:38;;;;;;;;;;;;;;;;;;4993531;28;20019;-68
2021/09/07 03:05:05;;;;;;;;;;;;;;;;;;4993181;28;20446;-68
2021/09/07 03:07:32;;;;;;;;;;;;;;;;;;4993213;28;20010;-68
2021/09/07 03:09:59;;;;;;;;;;;;;;;;;;4993485;28;20003;-68
2021/09/07 03:12:26;;;;;;;;;;;;;;;;;;4992809;28;20397;-68
2021/09/07 03:14:53;;;;;;;;;;;;;;;;;;4993345;28;20003;-68
2021/09/07 03:17:20;;;;;;;;;;;;;;;;;;4993267;28;20002;-68
2021/09/07 03:19:47;;;;;;;;;;;;;;;;;;4993232;28;20505;-67
2021/09/07 03:22:13;;;;;;;;;;;;;;;;;;4992943;28;20023;-68
2021/09/07 03:24:40;;;;;;;;;;;;;;;;;;4993416;28;20010;-68
2021/09/07 03:27:07;;;;;;;;;;;;;;;;;;4992787;28;20003;-68
2021/09/07 03:29:34;;;;;;;;;;;;;;;;;;4993255;28;20009;-68
2021/09/07 03:32:03;;;;;;;;;;;;;;;;;;4992559;28;20490;-68
2021/09/07 03:34:30;;;;;;;;;;;;;;;;;;4993294;28;20003;-68
2021/09/07 03:36:57;;;;;;;;;;;;;;;;;;4992561;28;20414;-68
2021/09/07 03:39:24;;;;;;;;;;;;;;;;;;4993369;28;20025;-68
2021/09/07 03:41:51;;;;;;;;;;;;;;;;;;4992780;28;20018;-68
2021/09/07 03:44:18;;;;;;;;;;;;;;;;;;4992839;28;20010;-68
2021/09/07 03:46:44;;;;;;;;;;;;;;;;;;4992766;28;20003;-68
2021/09/07 03:49:11;;;;;;;;;;;;;;;;;;4993025;28;20002;-68
2021/09/07 03:51:38;;;;;;;;;;;;;;;;;;4992592;28;20026;-68
2021/09/07 03:54:05;;;;;;;;;;;;;;;;;;4993148;28;20009;-68
2021/09/07 03:56:32;;;;;;;;;;;;;;;;;;4992446;28;20458;-68
2021/09/07 03:58:59;;;;;;;;;;;;;;;;;;4992571;28;20014;-69
2021/09/07 04:01:26;;;;;;;;;;;;;;;;;;4992610;28;20011;-68
2021/09/07 04:03:53;;;;;;;;;;;;;;;;;;4992462;28;20003;-69
2021/09/07 04:06:20;;;;;;;;;;;;;;;;;;4992720;28;20009;-68
2021/09/07 04:08:47;;;;;;;;;;;;;;;;;;4992846;28;20024;-66
2021/09/07 04:11:14;;;;;;;;;;;;;;;;;;4992707;28;20003;-66
2021/09/07 04:13:40;;;;;;;;;;;;;;;;;;4992823;28;20010;-66
2021/09/07 04:16:07;;;;;;;;;;;;;;;;;;4992803;28;20459;-68
2021/09/07 04:18:34;;;;;;;;;;;;;;;;;;4993023;28;20021;-68
2021/09/07 04:21:01;;;;;;;;;;;;;;;;;;4992898;28;20002;-67
2021/09/07 04:23:28;;;;;;;;;;;;;;;;;;4993344;28;20019;-66
2021/09/07 04:25:55;;;;;;;;;;;;;;;;;;4993243;28;20382;-66
2021/09/07 04:28:22;;;;;;;;;;;;;;;;;;4996962;28;20003;-68
2021/09/07 04:30:49;;;;;;;;;;;;;;;;;;4999378;28;20009;-67
2021/09/07 04:33:16;;;;;;;;;;;;;;;;;;4996964;28;20041;-68
2021/09/07 04:35:43;;;;;;;;;;;;;;;;;;4997150;28;20390;-68
2021/09/07 04:38:10;;;;;;;;;;;;;;;;;;4997218;28;20082;-69
2021/09/07 04:40:37;;;;;;;;;;;;;;;;;;4997312;28;20002;-69
2021/09/07 04:43:03;;;;;;;;;;;;;;;;;;4997086;28;20025;-67
2021/09/07 04:45:30;;;;;;;;;;;;;;;;;;4997293;28;20002;-68
2021/09/07 04:47:57;;;;;;;;;;;;;;;;;;4997452;28;20012;-67
2021/09/07 04:50:24;;;;;;;;;;;;;;;;;;4996738;28;20006;-68
2021/09/07 04:52:51;;;;;;;;;;;;;;;;;;4996512;28;20029;-70
2021/09/07 04:55:18;;;;;;;;;;;;;;;;;;4996077;28;20008;-67
2021/09/07 04:57:45;;;;;;;;;;;;;;;;;;4996389;28;20003;-67
2021/09/07 05:00:12;;;;;;;;;;;;;;;;;;4996010;28;20025;-65
2021/09/07 05:02:40;;;;;;;;;;;;;;;;;;4995970;28;20019;-66
2021/09/07 05:05:07;;;;;;;;;;;;;;;;;;4995990;28;20009;-66
2021/09/07 05:07:34;;;;;;;;;;;;;;;;;;4995536;28;20453;-66
2021/09/07 05:10:01;;;;;;;;;;;;;;;;;;4996012;28;20002;-66
2021/09/07 05:12:28;;;;;;;;;;;;;;;;;;4995591;28;20026;-66
2021/09/07 05:14:55;;;;;;;;;;;;;;;;;;4995557;28;20002;-66
2021/09/07 05:17:22;;;;;;;;;;;;;;;;;;4995303;28;20002;-66
2021/09/07 05:19:49;;;;;;;;;;;;;;;;;;4995482;28;20020;-65
2021/09/07 05:22:16;;;;;;;;;;;;;;;;;;4995477;28;20019;-66
2021/09/07 05:24:43;;;;;;;;;;;;;;;;;;4995535;28;20006;-66
2021/09/07 05:27:10;;;;;;;;;;;;;;;;;;4995535;28;20003;-66
2021/09/07 05:29:37;;;;;;;;;;;;;;;;;;4995709;28;20010;-66
2021/09/07 05:32:04;;;;;;;;;;;;;;;;;;4995862;28;20025;-66
2021/09/07 05:34:31;;;;;;;;;;;;;;;;;;4995722;28;20009;-66
2021/09/07 05:36:57;;;;;;;;;;;;;;;;;;4995639;28;20007;-66
2021/09/07 05:39:24;;;;;;;;;;;;;;;;;;4994426;28;20025;-67
2021/09/07 05:41:51;;;;;;;;;;;;;;;;;;4995651;28;20023;-67
2021/09/07 05:44:18;;;;;;;;;;;;;;;;;;4995540;28;20037;-66
2021/09/07 05:46:45;;;;;;;;;;;;;;;;;;4996281;28;20009;-66
2021/09/07 05:49:12;;;;;;;;;;;;;;;;;;4996254;28;20003;-66
2021/09/07 05:51:41;;;;;;;;;;;;;;;;;;4995553;28;20022;-66
2021/09/07 05:54:08;;;;;;;;;;;;;;;;;;4996149;28;20066;-66
2021/09/07 05:56:35;;;;;;;;;;;;;;;;;;4995416;28;20003;-67
2021/09/07 05:59:01;;;;;;;;;;;;;;;;;;4995066;28;20037;-66
2021/09/07 06:01:28;;;;;;;;;;;;;;;;;;4994732;28;20006;-65
2021/09/07 06:03:55;;;;;;;;;;;;;;;;;;4994558;28;20002;-66
2021/09/07 06:06:23;;;;;;;;;;;;;;;;;;4994606;28;20466;-66
2021/09/07 06:08:50;;;;;;;;;;;;;;;;;;4995000;28;20003;-66
2021/09/07 06:11:17;;;;;;;;;;;;;;;;;;4994823;28;20010;-67
2021/09/07 06:13:44;;;;;;;;;;;;;;;;;;4994760;28;20355;-66
2021/09/07 06:16:11;;;;;;;;;;;;;;;;;;4994926;28;20010;-66
2021/09/07 06:18:38;;;;;;;;;;;;;;;;;;4994518;28;20049;-68
2021/09/07 06:21:05;;;;;;;;;;;;;;;;;;4994718;28;20371;-68
2021/09/07 06:23:32;;;;;;;;;;;;;;;;;;4996771;28;20023;-68
2021/09/07 06:25:59;;;;;;;;;;;;;;;;;;4998664;28;20009;-68
2021/09/07 06:28:26;;;;;;;;;;;;;;;;;;4999371;28;20006;-68
2021/09/07 06:30:53;;;;;;;;;;;;;;;;;;5002726;28;20421;-68
2021/09/07 06:33:20;;;;;;;;;;;;;;;;;;5002164;28;20018;-68
2021/09/07 06:35:47;;;;;;;;;;;;;;;;;;5003065;28;20002;-68
2021/09/07 06:38:14;;;;;;;;;;;;;;;;;;5000677;28;20006;-69
2021/09/07 06:40:41;;;;;;;;;;;;;;;;;;5001609;28;20105;-66
2021/09/07 06:43:08;;;;;;;;;;;;;;;;;;5000840;28;20025;-68
2021/09/07 06:45:35;;;;;;;;;;;;;;;;;;4996667;28;20473;-68
2021/09/07 06:48:02;;;;;;;;;;;;;;;;;;4994374;28;20013;-68
2021/09/07 06:50:29;;;;;;;;;;;;;;;;;;4993515;28;20002;-68
2021/09/07 06:52:55;;;;;;;;;;;;;;;;;;4993727;28;20045;-68
2021/09/07 06:55:22;;;;;;;;;;;;;;;;;;4993946;28;20002;-68
2021/09/07 06:57:49;;;;;;;;;;;;;;;;;;4993947;28;20002;-68
2021/09/07 07:00:17;;;;;;;;;;;;;;;;;;4993395;28;20382;-68
2021/09/07 07:02:44;;;;;;;;;;;;;;;;;;4993440;28;20501;-68
2021/09/07 07:05:11;;;;;;;;;;;;;;;;;;4994024;28;20003;-68
2021/09/07 07:07:38;;;;;;;;;;;;;;;;;;4993551;28;20003;-68
2021/09/07 07:10:04;;;;;;;;;;;;;;;;;;4993543;28;20462;-68
2021/09/07 07:12:31;;;;;;;;;;;;;;;;;;4993400;28;20019;-67
2021/09/07 07:14:58;;;;;;;;;;;;;;;;;;4993432;28;20009;-68
2021/09/07 07:17:25;;;;;;;;;;;;;;;;;;4993143;28;20458;-68
2021/09/07 07:19:52;;;;;;;;;;;;;;;;;;4993513;28;20025;-68
2021/09/07 07:22:20;;;;;;;;;;;;;;;;;;4992892;28;20019;-68
2021/09/07 07:24:47;;;;;;;;;;;;;;;;;;4993413;28;20009;-68
2021/09/07 07:27:14;;;;;;;;;;;;;;;;;;4993486;28;20003;-67
2021/09/07 07:29:41;;;;;;;;;;;;;;;;;;4993756;28;20003;-68
2021/09/07 07:32:07;;;;;;;;;;;;;;;;;;4993071;28;20018;-68
2021/09/07 07:34:34;;;;;;;;;;;;;;;;;;4993295;28;20006;-68
2021/09/07 07:37:04;;;;;;;;;;;;;;;;;;4993205;28;20006;-68
2021/09/07 07:39:31;;;;;;;;;;;;;;;;;;4993195;28;20481;-68
2021/09/07 07:41:58;;;;;;;;;;;;;;;;;;4992857;28;20025;-68
2021/09/07 07:44:25;;;;;;;;;;;;;;;;;;4993267;28;20003;-68
2021/09/07 07:46:52;;;;;;;;;;;;;;;;;;4993103;28;20009;-68
2021/09/07 07:49:19;;;;;;;;;;;;;;;;;;4993498;28;20003;-68
2021/09/07 07:51:46;;;;;;;;;;;;;;;;;;4993335;28;20022;-69
2021/09/07 07:54:13;;;;;;;;;;;;;;;;;;4993602;28;20002;-68
2021/09/07 07:56:40;;;;;;;;;;;;;;;;;;4993414;28;20002;-69
2021/09/07 07:59:07;;;;;;;;;;;;;;;;;;4993342;28;20002;-68
2021/09/07 08:01:34;;;;;;;;;;;;;;;;;;4994029;28;20003;-68
2021/09/07 08:04:01;;;;;;;;;;;;;;;;;;4998154;28;20006;-68
2021/09/07 08:06:28;;;;;;;;;;;;;;;;;;4997851;28;20002;-68
2021/09/07 08:08:54;;;;;;;;;;;;;;;;;;4997093;28;20011;-67
2021/09/07 08:11:21;;;;;;;;;;;;;;;;;;4996778;28;20393;-69
2021/09/07 08:13:50;;;;;;;;;;;;;;;;;;4997139;28;20003;-69
2021/09/07 08:16:17;;;;;;;;;;;;;;;;;;4997307;28;20064;-68
2021/09/07 08:18:44;;;;;;;;;;;;;;;;;;4996853;28;20382;-68
2021/09/07 08:21:11;;;;;;;;;;;;;;;;;;4996695;28;20026;-68
2021/09/07 08:23:38;;;;;;;;;;;;;;;;;;4996444;28;20019;-68
2021/09/07 08:26:05;;;;;;;;;;;;;;;;;;4996910;28;20013;-67
2021/09/07 08:28:32;;;;;;;;;;;;;;;;;;4996621;28;20003;-68
2021/09/07 08:30:59;;;;;;;;;;;;;;;;;;4996526;28;20002;-68
2021/09/07 08:33:26;;;;;;;;;;;;;;;;;;4996571;28;20018;-68
2021/09/07 08:35:53;;;;;;;;;;;;;;;;;;4996819;28;20002;-69
2021/09/07 08:38:19;;;;;;;;;;;;;;;;;;4996353;28;20374;-68
2021/09/07 08:40:46;;;;;;;;;;;;;;;;;;4996402;28;20014;-68
2021/09/07 08:43:13;;;;;;;;;;;;;;;;;;4996466;28;20026;-67
2021/09/07 08:45:41;;;;;;;;;;;;;;;;;;4996441;28;20002;-68
2021/09/07 08:48:08;;;;;;;;;;;;;;;;;;4996510;28;20006;-68
2021/09/07 08:50:35;;;;;;;;;;;;;;;;;;4996243;28;20017;-68
2021/09/07 08:53:02;;;;;;;;;;;;;;;;;;4996310;28;20077;-68
2021/09/07 08:55:29;;;;;;;;;;;;;;;;;;4996586;28;20010;-68
2021/09/07 08:57:55;;;;;;;;;;;;;;;;;;4996225;28;20002;-67
2021/09/07 09:00:22;;;;;;;;;;;;;;;;;;4995973;28;20026;-68
2021/09/07 09:02:49;;;;;;;;;;;;;;;;;;4995921;28;20018;-68
2021/09/07 09:05:16;;;;;;;;;;;;;;;;;;4996164;28;20010;-68
2021/09/07 09:07:43;;;;;;;;;;;;;;;;;;4996344;28;20002;-69
2021/09/07 09:10:10;;;;;;;;;;;;;;;;;;4995825;28;20462;-68
2021/09/07 09:12:37;;;;;;;;;;;;;;;;;;4995350;28;20018;-69
2021/09/07 09:15:04;;;;;;;;;;;;;;;;;;4995962;28;20002;-68
2021/09/07 09:17:31;;;;;;;;;;;;;;;;;;4996136;28;20026;-68
2021/09/07 09:19:58;;;;;;;;;;;;;;;;;;4995870;28;20024;-68
2021/09/07 09:22:25;;;;;;;;;;;;;;;;;;4995354;28;20025;-68
2021/09/07 09:24:51;;;;;;;;;;;;;;;;;;4996029;28;20002;-68
2021/09/07 09:27:20;;;;;;;;;;;;;;;;;;4995834;28;20010;-68
2021/09/07 09:29:46;;;;;;;;;;;;;;;;;;4996170;28;20003;-68
2021/09/07 09:32:13;;;;;;;;;;;;;;;;;;4995636;28;20502;-68
2021/09/07 09:34:40;;;;;;;;;;;;;;;;;;4995428;28;20517;-67
2021/09/07 09:37:07;;;;;;;;;;;;;;;;;;4996551;28;20009;-68
2021/09/07 09:39:34;;;;;;;;;;;;;;;;;;4996068;28;20009;-69
2021/09/07 09:42:01;;;;;;;;;;;;;;;;;;4995745;28;20088;-68
2021/09/07 09:44:28;;;;;;;;;;;;;;;;;;4995953;28;20002;-69
2021/09/07 09:46:55;;;;;;;;;;;;;;;;;;4995725;28;20006;-68
2021/09/07 09:49:23;;;;;;;;;;;;;;;;;;4995726;28;20384;-68
2021/09/07 09:51:49;;;;;;;;;;;;;;;;;;4995340;28;20029;-68
2021/09/07 09:54:16;;;;;;;;;;;;;;;;;;4995318;28;20442;-68
2021/09/07 09:56:43;;;;;;;;;;;;;;;;;;4995631;28;20009;-68
2021/09/07 09:59:10;;;;;;;;;;;;;;;;;;4995518;28;20003;-69
2021/09/07 10:01:37;;;;;;;;;;;;;;;;;;4994648;28;20029;-69
2021/09/07 10:04:04;;;;;;;;;;;;;;;;;;4995634;28;20002;-68
2021/09/07 10:06:31;;;;;;;;;;;;;;;;;;4995194;28;20454;-69
2021/09/07 10:08:58;;;;;;;;;;;;;;;;;;4995413;28;20013;-68
2021/09/07 10:11:25;;;;;;;;;;;;;;;;;;4995139;28;20002;-69
2021/09/07 10:13:54;;;;;;;;;;;;;;;;;;4995454;28;20054;-68
2021/09/07 10:16:21;;;;;;;;;;;;;;;;;;4995990;28;20052;-69
2021/09/07 10:18:51;;;;;;;;;;;;;;;;;;4995500;28;20003;-69
2021/09/07 10:23:01;;;;;;;;;;;;;;;;;;4994885;28;20025;-68
2021/09/07 10:24:15;;;;;;;;;;;;;;;;;;4994692;28;20096;-68
2021/09/07 10:26:42;;;;;;;;;;;;;;;;;;4994597;28;20001;-69
2021/09/07 10:29:09;;;;;;;;;;;;;;;;;;4995039;28;20011;-68
2021/09/07 10:31:36;;;;;;;;;;;;;;;;;;4995058;28;20030;-67
2021/09/07 10:34:03;;;;;;;;;;;;;;;;;;4994343;28;20002;-68
2021/09/07 10:36:31;;;;;;;;;;;;;;;;;;4995088;28;20009;-68
2021/09/07 10:38:58;;;;;;;;;;;;;;;;;;4994864;28;20034;-67
2021/09/07 10:41:25;;;;;;;;;;;;;;;;;;4994729;28;20023;-69
2021/09/07 10:43:52;;;;;;;;;;;;;;;;;;4995010;28;20010;-69
2021/09/07 10:46:18;;;;;;;;;;;;;;;;;;4994581;28;20002;-68
2021/09/07 10:48:45;;;;;;;;;;;;;;;;;;4994285;28;20009;-68
2021/09/07 10:51:12;;;;;;;;;;;;;;;;;;4994288;28;20002;-68
2021/09/07 10:53:39;;;;;;;;;;;;;;;;;;4993592;28;20022;-68
2021/09/07 10:56:06;;;;;;;;;;;;;;;;;;4994305;28;20009;-68
2021/09/07 10:58:33;;;;;;;;;;;;;;;;;;4994328;28;20003;-69
2021/09/07 11:01:00;;;;;;;;;;;;;;;;;;4993996;28;20022;-68
2021/09/07 11:03:27;;;;;;;;;;;;;;;;;;4993614;28;20025;-68
2021/09/07 11:05:54;;;;;;;;;;;;;;;;;;4994239;28;20003;-69
2021/09/07 11:08:21;;;;;;;;;;;;;;;;;;4994330;28;20003;-68
2021/09/07 11:10:48;;;;;;;;;;;;;;;;;;4994439;28;20003;-68
2021/09/07 11:13:16;;;;;;;;;;;;;;;;;;4994126;28;20025;-69
2021/09/07 11:15:43;;;;;;;;;;;;;;;;;;4993807;28;20002;-68
2021/09/07 11:18:12;;;;;;;;;;;;;;;;;;4993666;28;20454;-68
2021/09/07 11:20:39;;;;;;;;;;;;;;;;;;4993089;28;20065;-68
2021/09/07 11:23:05;;;;;;;;;;;;;;;;;;4993996;28;20029;-69
2021/09/07 11:25:32;;;;;;;;;;;;;;;;;;4993172;28;20466;-69
2021/09/07 11:27:59;;;;;;;;;;;;;;;;;;4992940;28;20003;-69
2021/09/07 11:30:26;;;;;;;;;;;;;;;;;;4993322;28;20010;-69
2021/09/07 11:32:53;;;;;;;;;;;;;;;;;;4992951;28;20019;-68
2021/09/07 11:35:20;;;;;;;;;;;;;;;;;;4993286;28;20084;-68
2021/09/07 11:37:47;;;;;;;;;;;;;;;;;;4992903;28;20374;-68
2021/09/07 11:40:16;;;;;;;;;;;;;;;;;;4993008;28;20002;-69
2021/09/07 11:42:43;;;;;;;;;;;;;;;;;;4993244;28;20081;-69
2021/09/07 11:45:10;;;;;;;;;;;;;;;;;;4993494;28;20003;-68
2021/09/07 11:47:37;;;;;;;;;;;;;;;;;;4993336;28;20006;-69
2021/09/07 11:50:03;;;;;;;;;;;;;;;;;;4992602;28;20382;-69
2021/09/07 11:52:31;;;;;;;;;;;;;;;;;;4992919;28;20451;-69
2021/09/07 11:54:58;;;;;;;;;;;;;;;;;;4993528;28;20010;-69
2021/09/07 11:57:25;;;;;;;;;;;;;;;;;;4992840;28;20002;-68
2021/09/07 11:59:52;;;;;;;;;;;;;;;;;;4992594;28;20463;-69
2021/09/07 12:02:19;;;;;;;;;;;;;;;;;;4992567;28;20022;-69
2021/09/07 12:04:46;;;;;;;;;;;;;;;;;;4992446;28;20013;-69
2021/09/07 12:07:13;;;;;;;;;;;;;;;;;;4992513;28;20458;-69
2021/09/07 12:09:41;;;;;;;;;;;;;;;;;;4992715;28;20011;-69
2021/09/07 12:12:08;;;;;;;;;;;;;;;;;;4991946;28;20498;-69
2021/09/07 12:14:35;;;;;;;;;;;;;;;;;;4992528;28;20096;-69
2021/09/07 12:17:02;;;;;;;;;;;;;;;;;;4992589;28;20010;-68
2021/09/07 12:19:29;;;;;;;;;;;;;;;;;;4992644;28;20057;-69
2021/09/07 12:21:55;;;;;;;;;;;;;;;;;;4992424;28;20029;-68
2021/09/07 12:24:22;;;;;;;;;;;;;;;;;;4993192;28;20002;-68
2021/09/07 12:26:49;;;;;;;;;;;;;;;;;;4992496;28;20489;-68
2021/09/07 12:29:16;;;;;;;;;;;;;;;;;;4992448;28;20003;-68
2021/09/07 12:31:43;;;;;;;;;;;;;;;;;;4991885;28;20041;-68
2021/09/07 12:34:10;;;;;;;;;;;;;;;;;;4992620;28;20002;-67
2021/09/07 12:36:37;;;;;;;;;;;;;;;;;;4992597;28;20002;-69
2021/09/07 12:39:04;;;;;;;;;;;;;;;;;;4992356;28;20359;-68
2021/09/07 12:41:31;;;;;;;;;;;;;;;;;;4992209;28;20015;-68
2021/09/07 12:43:58;;;;;;;;;;;;;;;;;;4992708;28;20006;-68
2021/09/07 12:46:25;;;;;;;;;;;;;;;;;;4992197;28;20003;-68
2021/09/07 12:48:52;;;;;;;;;;;;;;;;;;4994695;28;20045;-68
2021/09/07 12:51:19;;;;;;;;;;;;;;;;;;4996088;28;20003;-68
2021/09/07 12:53:46;;;;;;;;;;;;;;;;;;4996076;28;20382;-68
2021/09/07 12:56:13;;;;;;;;;;;;;;;;;;4996001;28;20002;-68
2021/09/07 12:58:40;;;;;;;;;;;;;;;;;;4996122;28;20446;-68
2021/09/07 13:01:07;;;;;;;;;;;;;;;;;;4995870;28;20018;-68
2021/09/07 13:03:36;;;;;;;;;;;;;;;;;;4995782;28;20109;-69
2021/09/07 13:06:03;;;;;;;;;;;;;;;;;;4996016;28;20002;-68
2021/09/07 13:08:30;;;;;;;;;;;;;;;;;;4995574;28;20002;-68
2021/09/07 13:10:57;;;;;;;;;;;;;;;;;;4995483;28;20382;-68
2021/09/07 13:13:24;;;;;;;;;;;;;;;;;;4995783;28;20018;-68
2021/09/07 13:15:51;;;;;;;;;;;;;;;;;;4995901;28;20010;-68
2021/09/07 13:18:18;;;;;;;;;;;;;;;;;;4995466;28;20010;-68
2021/09/07 13:20:45;;;;;;;;;;;;;;;;;;4995540;28;20010;-67
2021/09/07 13:23:12;;;;;;;;;;;;;;;;;;4995998;28;20025;-68
2021/09/07 13:25:39;;;;;;;;;;;;;;;;;;4995699;28;20014;-68
2021/09/07 13:28:06;;;;;;;;;;;;;;;;;;4995237;28;20378;-68
2021/09/07 13:30:33;;;;;;;;;;;;;;;;;;4995338;28;20107;-68
2021/09/07 13:33:00;;;;;;;;;;;;;;;;;;4995344;28;20024;-68
2021/09/07 13:35:27;;;;;;;;;;;;;;;;;;4995965;28;20455;-68
2021/09/07 13:37:54;;;;;;;;;;;;;;;;;;4995905;28;20003;-68
2021/09/07 13:40:21;;;;;;;;;;;;;;;;;;4995425;28;20003;-68
2021/09/07 13:42:48;;;;;;;;;;;;;;;;;;4995515;28;20475;-68
2021/09/07 13:45:15;;;;;;;;;;;;;;;;;;4995251;28;20009;-68
2021/09/07 13:47:42;;;;;;;;;;;;;;;;;;4995587;28;20002;-68
2021/09/07 13:50:10;;;;;;;;;;;;;;;;;;4995518;28;20003;-66
2021/09/07 13:52:37;;;;;;;;;;;;;;;;;;4995313;28;20124;-68
2021/09/07 13:55:04;;;;;;;;;;;;;;;;;;4995453;28;20002;-68
2021/09/07 13:57:31;;;;;;;;;;;;;;;;;;4996155;28;20003;-68
2021/09/07 13:59:58;;;;;;;;;;;;;;;;;;4995078;28;20029;-68
2021/09/07 14:02:25;;;;;;;;;;;;;;;;;;4995320;28;20023;-68
2021/09/07 14:04:52;;;;;;;;;;;;;;;;;;4995401;28;20010;-68
2021/09/07 14:07:19;;;;;;;;;;;;;;;;;;4995242;28;20454;-68
2021/09/07 14:09:46;;;;;;;;;;;;;;;;;;4995559;28;20002;-68
2021/09/07 14:12:12;;;;;;;;;;;;;;;;;;4995347;28;20018;-68
2021/09/07 14:14:40;;;;;;;;;;;;;;;;;;4995486;28;20458;-68
2021/09/07 14:17:07;;;;;;;;;;;;;;;;;;4995019;28;20003;-68
2021/09/07 14:19:34;;;;;;;;;;;;;;;;;;4994724;28;20002;-68
2021/09/07 14:22:00;;;;;;;;;;;;;;;;;;4994208;28;20022;-68
2021/09/07 14:24:27;;;;;;;;;;;;;;;;;;4995190;28;20009;-68
2021/09/07 14:26:54;;;;;;;;;;;;;;;;;;4994961;28;20004;-67
2021/09/07 14:29:21;;;;;;;;;;;;;;;;;;4995087;28;20003;-68
2021/09/07 14:31:48;;;;;;;;;;;;;;;;;;4994613;28;20023;-68
2021/09/07 14:34:15;;;;;;;;;;;;;;;;;;4994846;28;20009;-68
2021/09/07 14:36:42;;;;;;;;;;;;;;;;;;4994697;28;20002;-68
2021/09/07 14:39:09;;;;;;;;;;;;;;;;;;4995444;28;20458;-68
2021/09/07 14:41:38;;;;;;;;;;;;;;;;;;4995026;28;20022;-68
2021/09/07 14:44:05;;;;;;;;;;;;;;;;;;4995039;28;20426;-68
2021/09/07 14:46:33;;;;;;;;;;;;;;;;;;4994885;28;20010;-68
2021/09/07 14:49:00;;;;;;;;;;;;;;;;;;4994823;28;20003;-68
2021/09/07 14:51:26;;;;;;;;;;;;;;;;;;4994426;28;20481;-69
2021/09/07 14:53:53;;;;;;;;;;;;;;;;;;4995341;28;20003;-68
2021/09/07 14:56:20;;;;;;;;;;;;;;;;;;4994673;28;20025;-68
2021/09/07 14:58:47;;;;;;;;;;;;;;;;;;4994364;28;20478;-68
2021/09/07 15:01:14;;;;;;;;;;;;;;;;;;4994123;28;20009;-68
2021/09/07 15:03:41;;;;;;;;;;;;;;;;;;4994429;28;20037;-67
2021/09/07 15:06:08;;;;;;;;;;;;;;;;;;4994583;28;20481;-68
2021/09/07 15:08:36;;;;;;;;;;;;;;;;;;4994493;28;20002;-68
2021/09/07 15:11:03;;;;;;;;;;;;;;;;;;4993732;28;20359;-68
2021/09/07 15:13:30;;;;;;;;;;;;;;;;;;4994109;28;20019;-68
2021/09/07 15:15:57;;;;;;;;;;;;;;;;;;4994396;28;20009;-68
2021/09/07 15:18:23;;;;;;;;;;;;;;;;;;4993987;28;20232;-67
2021/09/07 15:20:50;;;;;;;;;;;;;;;;;;4994324;28;20011;-68
2021/09/07 15:23:17;;;;;;;;;;;;;;;;;;4993919;28;20416;-68
2021/09/07 15:25:44;;;;;;;;;;;;;;;;;;4994027;28;20014;-67
2021/09/07 15:28:11;;;;;;;;;;;;;;;;;;4994403;28;20002;-68
2021/09/07 15:30:38;;;;;;;;;;;;;;;;;;4994242;28;20089;-68
2021/09/07 15:33:05;;;;;;;;;;;;;;;;;;4993710;28;20022;-67
2021/09/07 15:35:33;;;;;;;;;;;;;;;;;;4994387;28;20009;-68
2021/09/07 15:38:00;;;;;;;;;;;;;;;;;;4993959;28;20003;-67
2021/09/07 15:40:27;;;;;;;;;;;;;;;;;;4994253;28;20048;-68
2021/09/07 15:42:53;;;;;;;;;;;;;;;;;;4993982;28;20501;-68
2021/09/07 15:45:20;;;;;;;;;;;;;;;;;;4994342;28;20002;-68
2021/09/07 15:47:47;;;;;;;;;;;;;;;;;;4998803;28;20002;-68
2021/09/07 15:50:14;;;;;;;;;;;;;;;;;;5010875;28;20002;-66
2021/09/07 15:52:46;;;;;;;;;;;;;;;;;;5009692;28;20029;-67
2021/09/07 15:55:13;;;;;;;;;;;;;;;;;;5009200;28;20003;-67
2021/09/07 15:57:40;;;;;;;;;;;;;;;;;;5002997;28;20006;-68
2021/09/07 16:00:07;;;;;;;;;;;;;;;;;;4993650;28;20009;-68
2021/09/07 16:02:34;;;;;;;;;;;;;;;;;;4993427;28;20379;-68
2021/09/07 16:05:00;;;;;;;;;;;;;;;;;;4993549;28;20003;-67
2021/09/07 16:07:27;;;;;;;;;;;;;;;;;;4993162;28;20002;-67
2021/09/07 16:09:54;;;;;;;;;;;;;;;;;;4993335;28;20397;-68
2021/09/07 16:12:21;;;;;;;;;;;;;;;;;;4993409;28;20026;-68
2021/09/07 16:14:50;;;;;;;;;;;;;;;;;;4993443;28;20003;-68
2021/09/07 16:17:17;;;;;;;;;;;;;;;;;;4993619;28;20002;-67
2021/09/07 16:19:44;;;;;;;;;;;;;;;;;;4993328;28;20025;-68
2021/09/07 16:22:11;;;;;;;;;;;;;;;;;;4993133;28;20019;-67
2021/09/07 16:24:38;;;;;;;;;;;;;;;;;;4996950;28;20010;-67
2021/09/07 16:27:04;;;;;;;;;;;;;;;;;;4996988;28;20458;-68
2021/09/07 16:29:31;;;;;;;;;;;;;;;;;;4997190;28;20006;-68
2021/09/07 16:31:59;;;;;;;;;;;;;;;;;;4996702;28;20126;-68
2021/09/07 16:34:26;;;;;;;;;;;;;;;;;;4997078;28;20009;-67
2021/09/07 16:36:53;;;;;;;;;;;;;;;;;;4997052;28;20002;-68
2021/09/07 16:39:20;;;;;;;;;;;;;;;;;;4996981;28;20089;-67
2021/09/07 16:41:47;;;;;;;;;;;;;;;;;;4995970;28;20386;-67
2021/09/07 16:44:14;;;;;;;;;;;;;;;;;;4996989;28;20003;-67